Latest Coastal Weather Observations for Gove Airport

IDD60701

Issued at 12:05 am CST Sunday 20 April 2014 (issued every 10 minutes, with the page automatically refreshed every 10 minutes)

About coastal observations | Map of coastal stations | Coastal observations for NT | Marine services | Other Formats
Station Details ID: 014508 Name: GOVE AIRPORT Lat: -12.27 Lon: 136.82 Height: 51.6 m
Data from the previous 72 hours. | See also: Recent months at Gove Airport
Date/Time
CST
Temp

°C
Wind Pressure Rain
since 9am
mm
Weather Cloud Vis
km
Sea
Height
m
Swell
Dir
 
Speed
knots
Gust
knots
hPa Trend Height
m
Period
s
Dir
20/12:00am 24.9 SE 5 5 1009.6 - 5.4 - - 10 - - - -
 
Date/Time
CST
Temp

°C
Wind Pressure Rain
since 9am
mm
Weather Cloud Vis
km
Sea
Height
m
Swell
Dir
 
Speed
knots
Gust
knots
hPa Trend Height
m
Period
s
Dir
19/11:30pm 25.1 SE 6 7 1010.2 - 5.4 - - 10 - - - -
19/11:00pm 25.0 SSE 5 7 1010.6 - 5.4 - - 10 - - - -
19/10:30pm 24.6 SSE 5 6 1010.8 - 5.4 - Partly cloudy 10 - - - -
19/10:00pm 24.1 SSE 2 3 1011.2 - 5.4 Rain Mostly clear 10 - - - -
19/09:30pm 23.6 SSE 3 4 1011.3 - 5.4 Rain Mostly clear 10 - - - -
19/09:00pm 23.3 ESE 3 4 1010.9 R 5.2 Rain Mostly cloudy 10 - - - -
19/08:30pm 22.8 ESE 7 11 1011.2 - 5.2 Showers Mostly clear 4 - - - -
19/08:19pm 22.5 SSE 11 16 1011.3 - 4.8 Showers Partly cloudy 2 - - - -
19/08:09pm 26.8 SE 6 17 1011.2 - 0.0 Showers Partly cloudy 2 - - - -
19/08:00pm 26.7 SE 5 6 1010.9 - 0.0 - Mostly clear 10 - - - -
19/07:30pm 26.6 SSE 6 7 1010.6 - 0.0 - Mostly clear 10 - - - -
19/07:00pm 26.7 SE 5 7 1010.4 - 0.0 - Mostly clear 10 - - - -
19/06:30pm 27.0 SE 5 6 1010.0 - 0.0 - Mostly clear 10 - - - -
19/06:00pm 27.8 E 7 9 1009.1 F 0.0 Fine Mostly cloudy 22 - - - -
19/05:30pm 28.3 E 9 11 1009.3 - 0.0 - Mostly clear 10 - - - -
19/05:00pm 28.7 E 9 13 1009.2 - 0.0 - Mostly clear 10 - - - -
19/04:30pm 28.8 E 9 12 1009.0 - 0.0 - Mostly clear 10 - - - -
19/04:00pm 28.6 E 9 12 1008.9 - 0.0 Showers Mostly clear 10 - - - -
19/03:30pm 29.1 E 11 15 1008.9 - 0.0 Showers Mostly clear 10 - - - -
19/03:00pm 29.5 E 11 17 1008.6 R 0.0 Fine Mostly cloudy 20 - - - -
19/02:30pm 30.0 E 14 18 1009.1 - 0.0 - Mostly clear 10 - - - -
19/02:00pm 30.4 E 16 21 1009.2 - 0.0 - Mostly clear 10 - - - -
19/01:30pm 30.4 E 16 21 1009.5 - 0.0 - Mostly clear 10 - - - -
19/01:00pm 30.5 E 15 20 1009.8 - 0.0 - Mostly clear 10 - - - -
19/12:30pm 31.4 E 13 19 1010.3 - 0.0 - Partly cloudy 10 - - - -
19/12:00pm 30.8 E 13 18 1010.3 R 0.0 Fine Mostly cloudy 20 - - - -
19/11:30am 29.7 ESE 13 17 1011.1 - 0.0 - Mostly clear 10 - - - -
19/11:00am 29.4 ESE 12 20 1011.5 - 0.0 - Mostly clear 10 - - - -
19/10:30am 29.4 E 14 20 1011.8 - 0.0 - Mostly clear 10 - - - -
19/10:00am 29.7 ESE 12 17 1011.7 - 0.0 - Mostly clear 10 - - - -
19/09:30am 27.7 SE 15 24 1011.7 - 0.0 - Mostly clear 10 - - - -
19/09:00am 29.4 ESE 11 16 1011.1 F 34.8 Fine Mostly cloudy 20 - - - -
19/08:30am 27.8 E 10 14 1011.6 - 34.8 - Mostly clear 10 - - - -
19/08:00am 26.9 ESE 9 11 1011.6 - 34.8 - Mostly clear 10 - - - -
19/07:30am 26.4 ESE 9 11 1011.4 - 34.8 - Mostly clear 10 - - - -
19/07:00am 25.7 SE 7 9 1011.0 - 34.8 - Mostly clear 10 - - - -
19/06:30am 25.3 ESE 7 11 1010.6 - 34.8 - Mostly clear 10 - - - -
19/06:00am 25.1 ESE 9 11 1009.8 F 34.6 Rain Cloudy 12 - - - -
19/05:30am 25.1 ESE 9 17 1010.1 - 34.4 - Partly cloudy 10 - - - -
19/05:00am 24.5 E 8 10 1009.9 - 34.0 - Partly cloudy 10 - - - -
19/04:30am 24.0 SE 8 11 1009.9 - 33.8 - Partly cloudy 10 - - - -
19/04:00am 23.5 SE 1 5 1010.0 - 33.2 - Partly cloudy 8 - - - -
19/03:30am 23.6 ESE 2 5 1010.2 - 32.6 - Partly cloudy 10 - - - -
19/03:21am 23.6 SE 3 6 1010.4 - 32.4 - Partly cloudy 10 - - - -
19/03:00am 24.1 SE 10 14 1009.9 - 32.0 - Cloudy 5 - - - -
19/02:55am 24.3 SE 11 14 1010.4 - 31.8 - Partly cloudy 5 - - - -
19/02:52am 24.7 E 5 17 1010.4 - 31.4 - Partly cloudy 10 - - - -
19/02:35am 24.4 E 3 5 1010.1 - 31.0 - Partly cloudy 6 - - - -
19/02:30am 24.3 ESE 3 5 1010.3 - 30.8 - Partly cloudy 10 - - - -
19/02:00am 24.0 SSE 3 4 1010.6 - 30.6 - Partly cloudy 10 - - - -
19/01:30am 23.9 S 2 4 1010.8 - 30.6 - Partly cloudy 10 - - - -
19/01:00am 23.8 S 3 5 1011.1 - 30.6 - Partly cloudy 10 - - - -
19/12:30am 23.9 S 4 6 1011.4 - 30.6 - - 10 - - - -
19/12:00am 23.9 S 5 9 1011.6 - 30.6 - Mostly cloudy 10 - - - -
 
Date/Time
CST
Temp

°C
Wind Pressure Rain
since 9am
mm
Weather Cloud Vis
km
Sea
Height
m
Swell
Dir
 
Speed
knots
Gust
knots
hPa Trend Height
m
Period
s
Dir
18/11:30pm 23.9 SSW 5 6 1012.5 - 30.4 - Partly cloudy 10 - - - -
18/11:00pm 23.7 SSW 4 5 1012.6 - 30.0 - - 10 - - - -
18/10:30pm 23.5 S 4 5 1012.6 - 29.6 - - 8 - - - -
18/10:11pm 23.5 S 4 6 1012.6 - 29.0 - Partly cloudy 7 - - - -
18/10:00pm 23.5 S 4 6 1012.7 - 28.6 Rain Mostly clear 5 - - - -
18/09:44pm 23.6 S 4 5 1012.8 - 28.0 Rain Mostly clear 6 - - - -
18/09:30pm 23.6 S 4 5 1012.7 - 27.6 Rain Mostly clear 9 - - - -
18/09:00pm 23.7 S 1 3 1012.4 F 27.6 Rain Mostly cloudy 8 - - - -
18/08:30pm 23.7 S 3 5 1012.9 - 27.4 Rain Mostly clear 6 - - - -
18/08:00pm 23.7 S 4 6 1012.7 - 26.6 Rain Mostly clear 4 - - - -
18/07:30pm 23.6 S 6 9 1012.4 - 25.2 Rain Mostly clear 4 - - - -
18/07:14pm 23.6 S 7 12 1012.2 - 24.6 Rain Mostly clear 6 - - - -
18/07:00pm 23.5 S 6 9 1012.0 - 24.4 Rain Mostly clear 8 - - - -
18/06:30pm 23.1 SSW 6 8 1011.3 - 24.2 Rain Mostly clear 4 - - - -
18/06:00pm 23.2 SSW 5 7 1010.8 R 23.8 Rain Mostly cloudy 6 - - - -
18/05:30pm 24.1 SSW 3 8 1011.1 - 21.2 Showers Mostly clear 4 - - - -
18/05:01pm 24.2 W 4 5 1010.6 - 19.6 Showers Mostly clear 4 - - - -
18/04:55pm 24.2 WSW 4 6 1010.6 - 19.2 - Partly cloudy 5 - - - -
18/04:44pm 24.2 WSW 4 5 1010.4 - 18.4 Showers Mostly clear 4 - - - -
18/04:30pm 24.1 SW 3 5 1010.4 - 17.8 Showers Mostly clear 4 - - - -
18/04:23pm 24.1 CALM 0 0 1010.3 - 17.0 Showers Mostly clear 2 - - - -
18/04:09pm 24.1 CALM 0 0 1010.1 - 15.8 Rain Mostly clear 4 - - - -
18/04:00pm 24.0 CALM 0 0 1010.0 - 15.6 Rain Mostly clear 10 - - - -
18/03:30pm 24.0 ENE 2 5 1010.1 - 14.6 Rain Mostly clear 5 - - - -
18/03:00pm 24.1 N 8 13 1010.0 R 12.6 Showers Cloudy 3 - - - -
18/02:41pm 25.1 N 6 11 1010.8 - 5.6 Showers Mostly clear 2 - - - -
18/02:30pm 24.9 WSW 3 5 1010.2 - 5.6 Rain Mostly clear 10 - - - -
18/02:00pm 24.9 SW 3 4 1010.3 - 5.4 Rain Mostly clear 8 - - - -
18/01:30pm 25.0 SW 4 5 1010.3 - 5.2 - Partly cloudy 9 - - - -
18/01:00pm 24.4 SSE 3 5 1010.6 - 4.8 - Partly cloudy 10 - - - -
18/12:48pm 24.1 SE 4 6 1010.9 - 4.8 Rain Mostly clear 9 - - - -
18/12:30pm 24.1 ESE 9 13 1011.2 - 4.4 Rain Mostly clear 5 - - - -
18/12:26pm 24.0 ESE 11 17 1011.3 - 4.2 Rain Mostly clear 5 - - - -
18/12:00pm 24.1 SE 7 10 1011.3 R 2.6 Rain Cloudy 7 - - - -
18/11:30am 25.0 ESE 15 22 1011.9 - 1.2 Showers Mostly clear 3 - - - -
18/11:25am 25.4 ESE 17 22 1011.9 - 0.6 Showers Mostly clear 6 - - - -
18/11:00am 26.1 SE 5 8 1012.1 - 0.6 - Mostly clear 10 - - - -
18/10:30am 25.2 S 4 6 1012.4 - 0.6 Rain Mostly clear 10 - - - -
18/10:00am 24.9 S 3 4 1012.3 - 0.6 Rain Mostly clear 10 - - - -
18/09:30am 24.7 CALM 0 0 1012.0 - 0.6 Rain Mostly clear 9 - - - -
18/09:00am 24.4 ESE 3 5 1011.7 F 53.0 Rain Cloudy 8 - - - -
18/08:30am 24.3 E 5 7 1012.0 - - Rain Mostly clear 8 - - - -
18/08:19am 24.1 ENE 5 7 1011.9 - - Rain Mostly clear 8 - - - -
18/08:00am 23.9 E 7 9 1011.9 - - Rain Mostly clear 6 - - - -
18/07:53am 23.8 E 8 11 1011.8 - - Rain Mostly clear 6 - - - -
18/07:40am 23.6 E 11 16 1011.8 - - Rain Mostly clear 7 - - - -
18/07:30am 24.0 ENE 11 17 1011.6 - - Rain Mostly clear 5 - - - -
18/07:00am 24.2 E 9 14 1011.5 - - Rain Mostly clear 2 - - - -
18/06:52am 24.1 ENE 8 10 1011.5 - - Rain Mostly clear 2 - - - -
18/06:32am 23.7 ENE 11 15 1011.2 - - Showers Mostly clear 2 - - - -
18/06:27am 23.6 ENE 13 18 1011.1 - - Showers Mostly clear 2 - - - -
18/06:00am 24.3 ENE 11 15 1010.4 R - Showers Cloudy 2 - - - -
18/05:56am 24.6 ENE 10 13 1010.8 - - - Partly cloudy 5 - - - -
18/05:48am 24.8 NNE 5 6 1010.4 - - - Partly cloudy 9 - - - -
18/05:36am 24.5 NNE 3 5 1010.2 - - - Partly cloudy 6 - - - -
18/05:30am 24.5 ESE 1 4 1010.2 - - - Partly cloudy 5 - - - -
18/05:20am 24.0 CALM 0 0 1010.3 - - - Partly cloudy 6 - - - -
18/05:00am 24.1 CALM 0 0 1010.4 - - - Partly cloudy 10 - - - -
18/04:30am 23.9 ESE 2 4 1009.9 - - - Partly cloudy 10 - - - -
18/04:00am 23.9 ESE 5 6 1010.1 - - - Partly cloudy 10 - - - -
18/03:30am 23.6 SSE 2 4 1010.3 - - - Partly cloudy 8 - - - -
18/03:00am 23.6 SSE 2 4 1009.7 - 25.0 - Mostly clear 10 - - - -
18/02:30am 23.7 SE 5 7 1010.2 - - - Partly cloudy 7 - - - -
18/02:17am 24.0 SE 6 7 1010.2 - - - Partly cloudy 10 - - - -
18/02:00am 24.2 ESE 6 8 1010.4 - - - Partly cloudy 6 - - - -
18/01:59am 24.2 ESE 6 8 1010.5 - - - Partly cloudy 6 - - - -
18/01:30am 23.8 CALM 0 0 1010.9 - - - Partly cloudy 9 - - - -
18/01:00am 23.6 SSW 5 9 1011.2 - - - Partly cloudy 10 - - - -
18/12:50am 23.6 SSW 6 8 1011.3 - - - Partly cloudy 10 - - - -
18/12:30am 23.8 S 8 10 1011.4 - - - Partly cloudy 1 - - - -
18/12:00am 24.2 SE 10 14 1011.5 - - - Cloudy 1 - - - -
 
Date/Time
CST
Temp

°C
Wind Pressure Rain
since 9am
mm
Weather Cloud Vis
km
Sea
Height
m
Swell
Dir
 
Speed
knots
Gust
knots
hPa Trend Height
m
Period
s
Dir
17/11:30pm 24.7 S 7 9 1011.7 - - - Partly cloudy 5 - - - -
17/11:27pm 24.6 SSW 7 9 1011.8 - - - Partly cloudy 5 - - - -
17/11:01pm 25.1 SW 6 8 1011.8 - - - Partly cloudy 10 - - - -
17/11:00pm 25.1 SW 6 8 1011.7 - - - Partly cloudy 10 - - - -
17/10:37pm 25.0 SSW 5 6 1012.0 - - - Partly cloudy 6 - - - -
17/10:30pm 25.1 S 4 5 1012.1 - - - Partly cloudy 10 - - - -
17/10:14pm 25.4 NE 2 5 1012.3 - - - Partly cloudy 10 - - - -
17/10:00pm 25.4 NE 5 7 1012.2 - - Thunder Mostly clear 4 - - - -
17/09:49pm 25.7 ENE 10 15 1012.3 - - Thunder Mostly clear 3 - - - -
17/09:30pm 26.4 ENE 7 11 1011.9 - - - Mostly clear 10 - - - -
17/09:00pm 26.7 E 5 8 1011.4 R 8.0 Recent th'storm Mostly cloudy 12 - - - -
17/08:30pm 26.2 NNE 2 4 1011.3 - - Thunder Mostly clear 10 - - - -
17/08:00pm 26.0 SW 6 7 1010.8 - - Thunderstorm Mostly clear 5 - - - -
17/07:30pm 26.2 S 5 7 1010.4 - - Showers Mostly clear 9 - - - -
17/07:00pm 26.2 SSW 5 7 1010.0 - - Thunder Mostly clear 10 - - - -
17/06:54pm 26.1 S 5 7 1009.6 - - Thunder Mostly clear 10 - - - -
17/06:25pm 26.2 S 5 6 1009.4 - - Showers Mostly clear 4 - - - -
17/06:19pm 25.9 SSW 5 6 1009.4 - - Showers Mostly clear 4 - - - -
17/06:00pm 25.6 E 12 18 1009.0 R - Showers Mostly cloudy 2 - - - -
17/05:54pm 27.9 E 10 14 1009.3 - - Showers Mostly clear 2 - - - -
17/05:30pm 29.2 E 10 12 1009.1 - - Showers Mostly clear 4 - - - -
17/05:00pm 29.6 ESE 10 14 1008.8 - - - Mostly clear 10 - - - -
17/04:30pm 28.5 ESE 7 9 1008.5 - - - Mostly clear 10 - - - -
17/04:24pm 28.0 ESE 8 10 1008.5 - - Showers Mostly clear 10 - - - -
17/04:00pm 29.5 ESE 11 15 1008.3 - - Showers Mostly clear 5 - - - -
17/03:30pm 29.5 E 12 17 1008.2 - - - Mostly clear 10 - - - -
17/03:00pm 29.2 E 11 16 1008.2 - - Showers Mostly clear 3 - - - -
17/02:30pm 30.2 E 13 17 1008.5 - - - Partly cloudy 10 - - - -
17/02:00pm 29.7 E 13 19 1009.0 - - - Partly cloudy 10 - - - -
17/01:30pm 29.5 E 13 17 1009.3 - - - Partly cloudy 10 - - - -
17/01:13pm 29.0 ESE 14 20 1009.4 - - - Partly cloudy 10 - - - -
17/01:00pm 27.7 E 15 22 1009.7 - - - Partly cloudy 6 - - - -
17/12:59pm 27.6 E 15 22 1009.7 - - - Partly cloudy 6 - - - -
17/12:55pm 27.7 E 13 22 1009.7 - - - Partly cloudy 10 - - - -
17/12:35pm 27.1 E 17 24 1010.1 - - Showers Mostly cloudy 3 - - - -
17/12:30pm 29.7 E 15 21 1010.0 - - Showers Mostly cloudy 3 - - - -
17/12:00pm 30.1 E 15 21 1010.1 F - Recent precip. Mostly cloudy 25 - - - -
17/11:30am 28.0 E 9 13 1011.2 - - Showers Mostly clear 10 - - - -
17/11:00am 29.7 ESE 13 18 1011.4 - - Showers Partly cloudy 10 - - - -
17/10:30am 28.2 ESE 10 13 1011.8 - - Showers Partly cloudy 10 - - - -
17/10:00am 28.5 E 9 12 1012.1 - - Showers Partly cloudy 10 - - - -
17/09:30am 28.4 E 12 15 1011.7 - 0.0 - Mostly clear 10 - - - -
17/09:00am 27.8 E 11 16 1010.9 F 0.2 Recent precip. Mostly cloudy 20 - - - -
17/08:30am 26.8 ESE 10 14 1011.2 - 0.2 Showers Partly cloudy 10 - - - -
17/08:29am 26.8 ESE 10 14 1011.2 - 0.2 - Partly cloudy 6 - - - -
17/08:00am 28.3 ESE 9 11 1011.1 - 0.0 - Mostly clear 10 - - - -
17/07:30am 27.9 SE 8 10 1010.6 - 0.0 - Mostly clear 10 - - - -
17/07:00am 27.7 SE 10 13 1010.4 - 0.0 - Mostly clear 10 - - - -
17/06:30am 27.5 SE 8 12 1010.3 - 0.0 - Mostly clear 10 - - - -
17/06:00am 27.5 SE 7 10 1009.6 R 0.0 Fine Mostly cloudy 25 - - - -
17/05:30am 27.5 SE 8 10 1009.5 - 0.0 - Partly cloudy 10 - - - -
17/05:00am 27.5 SE 9 13 1009.3 - 0.0 - Partly cloudy 10 - - - -
17/04:30am 27.5 SSE 7 9 1009.2 - 0.0 - Partly cloudy 10 - - - -
17/04:00am 27.5 SE 7 9 1009.4 - 0.0 - Partly cloudy 10 - - - -
17/03:30am 27.3 SE 5 7 1009.4 - 0.0 - Cloudy 10 - - - -
17/03:00am 27.3 SE 7 9 1009.0 - 0.0 - Cloudy 10 - - - -
17/02:30am 26.4 S 2 4 1009.6 - 0.0 - Cloudy 10 - - - -
17/02:00am 26.8 S 4 9 1009.7 - 0.0 - Cloudy 10 - - - -
17/01:30am 25.7 CALM 0 0 1010.0 - 0.0 - Partly cloudy 10 - - - -
17/01:00am 26.0 CALM 0 0 1010.1 - 0.0 - Partly cloudy 10 - - - -
17/12:30am 26.5 SE 5 6 1010.4 - 0.0 - Partly cloudy 10 - - - -

Other Formats:

Comma delimited format used in spreadsheet applications
http://www.bom.gov.au/fwo/IDD60701/IDD60701.94150.axf

JavaScript Object Notation format (JSON) in row-major order
http://www.bom.gov.au/fwo/IDD60701/IDD60701.94150.json